• Join FlightAware (Why Join?)
  • Login
  • US Flag 
04:50AM EDT


 

Airport Tracker/Info


-or-


 

Live Flight TrackerFlight Track Log ✈ N329JB ✈ 20-Apr-2013 ✈ KIAD - KBOS

Flight Track Log - Related Links

Times and Time Zones

All times are in EDT time to prevent confusion due to time zone crossing. See the N329JB flight status page for this flight to view local times or setup timezone preferences in your user account.

Time Position Orientation Groundspeed Altitude Reporting Facility
EDT Latitude Longitude Course Direction KTS MPH feet Rate Location/Type
10:27AM 38.9833 -77.5333 67° East 209 241 3,100  Level Potomac TRACON
10:28AM 39.0333 -77.5667 333° Northwest 243 280 6,200 3,120 Climbing Potomac TRACON
10:29AM 39.0833 -77.5833 345° North 255 293 9,100 1,920 Climbing Potomac TRACON
10:30AM 39.1500 -77.4667 54° Northeast 366 421 10,100 480 Climbing Potomac TRACON
10:31AM 39.0828 -76.6345 57° Northeast  Level FlightAware Approximate
10:31AM 39.1667 -77.3500 80° East 408 470 10,100  Level Potomac TRACON
10:32AM 39.0995 -76.4939 74° East  Level FlightAware Approximate
10:32AM 39.1500 -77.2167 99° East 399 459 12,100  Level Potomac TRACON
10:33AM 39.1208 -76.3542 67° East  Level FlightAware Approximate
10:34AM 39.0956 -76.9261 103° East 415 478 17,000  Level Washington Center
10:35AM 39.0994 -76.7631 88° East 426 490 18,800 960 Climbing Washington Center
10:36AM 39.1156 -76.6000 83° East 442 509 19,000 720 Climbing Washington Center
10:37AM 39.1292 -76.4425 84° East 442 509 20,300 1,260 Climbing Washington Center
10:38AM 39.1428 -76.2767 84° East 442 509 21,600 1,320 Climbing Washington Center
10:39AM 39.1686 -76.1031 79° East 462 532 23,000 660 Climbing Washington Center
10:40AM 39.1900 -75.9264 81° East 484 557 23,000 360 Level Washington Center
10:41AM 39.2758 -75.7767 53° Northeast 484 557 23,800 960 Climbing Washington Center
10:42AM 39.3844 -75.6344 45° Northeast 498 573 25,000 600 Climbing Washington Center
10:43AM 39.4947 -75.4919 45° Northeast 535 616 25,000  Level Washington Center
10:44AM 39.6050 -75.3464 45° Northeast 553 636 25,000  Level Washington Center
10:45AM 39.7128 -75.1978 47° Northeast 553 636 25,000  Level Washington Center
10:46AM 39.7644 -75.1217 49° Northeast 564 649 25,000  Level New York Center
10:47AM 39.8719 -74.9714 47° Northeast 570 656 25,000  Level New York Center
10:48AM 39.9883 -74.8022 48° Northeast 570 656 25,000  Level New York Center
10:49AM 40.0847 -74.6642 48° Northeast 570 656 25,000  Level New York Center
10:50AM 40.2069 -74.4969 46° Northeast 570 656 25,000  Level New York Center
10:51AM 40.3169 -74.3750 40° Northeast 576 663 25,000  Level New York Center
10:52AM 40.4278 -74.2200 47° Northeast 576 663 25,000  Level New York Center
10:53AM 40.5222 -74.0556 53° Northeast 571 657 25,000  Level New York Center
10:54AM 40.6164 -73.8850 54° Northeast 571 657 25,000 -300 Level New York Center
10:56AM 40.7881 -73.5667 54° Northeast 604 695 24,300 -360 Descending Boston Center
10:57AM 40.8792 -73.4064 53° Northeast 578 665 24,000 -180 Descending Boston Center
10:58AM 40.9825 -73.2594 47° Northeast 551 634 24,000  Level Boston Center
10:59AM 41.0856 -73.1092 48° Northeast 545 627 24,000 -480 Level Boston Center
11:00AM 41.1844 -72.9061 57° Northeast 545 627 23,000 -540 Descending Boston Center
11:01AM 41.2581 -72.7053 64° Northeast 545 627 23,000  Level Boston Center
11:02AM 41.3208 -72.5394 63° Northeast 545 627 23,000  Level Boston Center
11:03AM 41.3875 -72.3572 64° Northeast 545 627 23,000 -60 Level Boston Center
11:04AM 41.4600 -72.1631 63° Northeast 530 610 22,900 -720 Descending Boston Center
11:05AM 41.5222 -71.9881 65° Northeast 524 603 21,600 -1,560 Descending Boston Center
11:06AM 41.5839 -71.8239 63° Northeast 509 586 19,800 -1,800 Descending Boston Center
11:07AM 41.6411 -71.6622 65° Northeast 488 562 18,100 -1,800 Descending Boston Center
11:08AM 41.6983 -71.5031 64° Northeast 475 547 16,200 -2,040 Descending Boston Center
11:09AM 41.7514 -71.3717 62° Northeast 453 521 14,100 -2,280 Descending Boston Center
11:10AM 41.8144 -71.2200 61° Northeast 432 497 11,700 -1,560 Descending Boston Center
11:11AM 41.8653 -71.0992 61° Northeast 419 482 11,000 -660 Descending Boston Center
11:11AM 41.8833 -71.0500 64° Northeast 395 455 10,900 -120 Descending KA90
11:12AM 41.9333 -70.9500 56° Northeast 389 448 10,900  Level KA90
11:13AM 41.9703 -70.8511 63° Northeast 382 440 11,000 -540 Climbing Boston Center
11:14AM 42.0292 -70.7381 55° Northeast 372 428 10,000 -1,380 Descending Boston Center
11:15AM 42.0964 -70.6411 47° Northeast 359 413 8,300 -1,680 Descending Boston Center
11:16AM 42.1856 -70.6106 14° North 322 371 6,700 -1,560 Descending Boston Center
11:17AM 42.2608 -70.6250 352° North 278 320 5,200 -1,680 Descending Boston Center
11:18AM 42.3219 -70.6739 329° Northwest 256 295 3,400 -1,380 Descending Boston Center
11:19AM 42.3667 -70.7372 314° West 240 276 2,500 -900 Descending Boston Center
11:20AM 42.3908 -70.8153 293° West 235 270 1,600 -480 Descending Boston Center
11:21AM 42.3814 -70.8803 259° West 189 217 1,600 -360 Level Boston Center
11:22AM 42.3717 -70.9339 256° West 148 170 900 -720 Descending Boston Center
11:24AM 42.3500 -71.0000 North  Level FlightAware Approximate
11:31AM 42.3630 -71.0064 North  Level Estimated